Time;durP1;ratioP1;P1;durP2;ratioP2;P2;SDS_P1;SDS_P2;PMS_P1;PMS_P2;Temp;Humidity;BMP_temperature;BMP_pressure;BME280_temperature;BME280_humidity;BME280_pressure;Samples;Min_cycle;Max_cycle;Signal;HPM_P1;HPM_P2
2022/12/05 00:00:12;;;;;;;78.60;35.60;;;;;;;-0.58;99.72;98821.19;4997047;28;20029;-83
2022/12/05 00:02:38;;;;;;;69.65;33.03;;;;;;;-0.28;100.00;98818.41;5013597;28;20033;-82
2022/12/05 00:05:03;;;;;;;71.13;34.88;;;;;;;-0.27;100.00;98830.53;5018546;28;20029;-83
2022/12/05 00:07:29;;;;;;;81.72;36.97;;;;;;;-0.28;99.84;98835.94;5016809;28;20855;-82
2022/12/05 00:09:54;;;;;;;71.28;36.03;;;;;;;-0.76;100.00;98818.88;5012470;28;20128;-82
2022/12/05 00:12:20;;;;;;;71.50;31.90;;;;;;;-0.78;100.00;98819.06;5011321;28;20041;-82
2022/12/05 00:14:45;;;;;;;69.20;37.05;;;;;;;-0.85;100.00;98812.91;5017784;28;20021;-82
2022/12/05 00:17:10;;;;;;;68.07;33.75;;;;;;;-0.60;100.00;98834.47;5000052;28;20037;-82
2022/12/05 00:19:36;;;;;;;68.88;35.55;;;;;;;-1.05;100.00;98782.16;5017270;28;20029;-83
2022/12/05 00:22:01;;;;;;;71.07;30.90;;;;;;;-0.69;100.00;98829.47;4991553;28;20087;-82
2022/12/05 00:24:27;;;;;;;74.97;33.78;;;;;;;-0.82;100.00;98809.94;5006946;28;20025;-81
2022/12/05 00:26:52;;;;;;;73.53;34.42;;;;;;;-0.50;100.00;98834.22;5022915;28;20125;-82
2022/12/05 00:29:17;;;;;;;69.50;34.08;;;;;;;-0.89;100.00;98808.19;5018644;28;20041;-82
2022/12/05 00:31:43;;;;;;;64.60;35.70;;;;;;;-0.78;100.00;98824.31;5019786;28;20037;-82
2022/12/05 00:34:09;;;;;;;77.88;37.15;;;;;;;-0.37;100.00;98823.94;5017510;28;20268;-81
2022/12/05 00:36:35;;;;;;;73.05;34.13;;;;;;;-0.14;100.00;98812.38;5021377;28;20112;-82
2022/12/05 00:39:05;;;;;;;55.72;28.42;;;;;;;0.01;100.00;98817.59;5018538;28;20144;-81
2022/12/05 00:41:31;;;;;;;87.32;34.80;;;;;;;-0.54;100.00;98811.97;5018902;28;20128;-82
2022/12/05 00:43:58;;;;;;;76.32;37.78;;;;;;;-0.40;100.00;98819.03;5022325;28;20133;-82
2022/12/05 00:46:25;;;;;;;80.85;37.92;;;;;;;-0.86;100.00;98802.59;5021155;28;20029;-82
2022/12/05 00:48:52;;;;;;;72.78;30.92;;;;;;;-0.24;100.00;98793.44;5020674;28;20555;-82
2022/12/05 00:51:21;;;;;;;74.82;37.50;;;;;;;-0.53;100.00;98796.06;5004285;28;20128;-82
2022/12/05 00:53:47;;;;;;;74.97;35.92;;;;;;;-0.84;100.00;98804.06;5018779;28;20030;-82
2022/12/05 00:56:17;;;;;;;81.72;35.47;;;;;;;-0.86;100.00;98819.16;5018884;28;20135;-82
2022/12/05 00:58:42;;;;;;;79.90;36.17;;;;;;;-0.67;100.00;98809.13;5019600;28;20036;-82
2022/12/05 01:01:19;;;;;;;75.75;36.50;;;;;;;-0.69;100.00;98811.94;5001602;28;20033;-82
2022/12/05 01:03:45;;;;;;;77.38;35.72;;;;;;;-0.88;100.00;98799.34;5017733;28;20038;-81
2022/12/05 01:06:13;;;;;;;67.75;32.17;;;;;;;-0.39;100.00;98812.78;5001174;28;20037;-81
2022/12/05 01:08:39;;;;;;;77.10;36.10;;;;;;;-0.76;100.00;98811.84;5004664;28;20030;-82
2022/12/05 01:11:05;;;;;;;77.18;36.67;;;;;;;-0.72;100.00;98772.97;5015026;28;20026;-82
2022/12/05 01:13:31;;;;;;;81.65;35.05;;;;;;;-0.96;100.00;98794.97;5020685;28;20072;-82
2022/12/05 01:15:56;;;;;;;82.53;37.72;;;;;;;-0.77;100.00;98818.09;4982099;28;20029;-82
2022/12/05 01:18:23;;;;;;;83.95;37.55;;;;;;;-0.70;100.00;98809.50;5009578;28;20032;-82
2022/12/05 01:20:49;;;;;;;82.50;37.22;;;;;;;-0.91;100.00;98765.63;5016637;28;20112;-83
2022/12/05 01:23:15;;;;;;;70.65;36.88;;;;;;;-0.57;100.00;98805.28;5023142;28;20040;-82
2022/12/05 01:25:42;;;;;;;82.40;37.90;;;;;;;-0.85;100.00;98781.47;5022992;28;20041;-83
2022/12/05 01:28:08;;;;;;;82.65;37.33;;;;;;;-0.51;100.00;98804.56;5022241;28;20582;-83
2022/12/05 01:30:38;;;;;;;83.32;36.60;;;;;;;-0.77;100.00;98806.78;5022756;28;20030;-83
2022/12/05 01:33:03;;;;;;;81.20;38.05;;;;;;;-0.77;100.00;98806.78;5025593;28;20436;-82
2022/12/05 01:35:34;;;;;;;75.75;36.72;;;;;;;-0.80;100.00;98786.16;5028878;28;20030;-82
2022/12/05 01:37:59;;;;;;;78.18;36.00;;;;;;;-0.80;100.00;98807.13;5023901;28;20030;-82
2022/12/05 01:40:25;;;;;;;92.85;39.80;;;;;;;-0.95;100.00;98798.41;5005974;28;20397;-81
2022/12/05 01:42:50;;;;;;;82.85;35.17;;;;;;;-1.02;100.00;98793.06;4987184;28;20512;-84
2022/12/05 01:45:31;;;;;;;79.18;37.60;;;;;;;-0.93;100.00;98804.28;5009197;28;20030;-84
2022/12/05 01:47:59;;;;;;;84.15;37.92;;;;;;;-1.11;100.00;98788.06;5022163;28;20025;-82
2022/12/05 01:50:24;;;;;;;76.90;35.88;;;;;;;-0.94;100.00;98792.22;5021901;28;20479;-82
2022/12/05 01:52:50;;;;;;;86.65;37.45;;;;;;;-0.74;100.00;98797.75;5019767;28;20132;-84
2022/12/05 01:55:17;;;;;;;87.40;40.92;;;;;;;-0.87;100.00;98814.06;4984634;28;20159;-83
2022/12/05 01:57:46;;;;;;;91.22;38.50;;;;;;;-0.81;100.00;98808.13;5018962;28;20060;-82
2022/12/05 02:00:16;;;;;;;86.95;38.08;;;;;;;-0.50;100.00;98813.25;5004880;28;20025;-83
2022/12/05 02:02:47;;;;;;;87.63;40.55;;;;;;;0.08;100.00;98805.38;4998929;28;20040;-83
2022/12/05 02:05:26;;;;;;;75.00;37.28;;;;;;;-0.52;100.00;98807.34;5021430;28;20028;-84
2022/12/05 02:07:52;;;;;;;84.03;39.50;;;;;;;-0.72;100.00;98793.94;5020305;28;20128;-82
2022/12/05 02:10:18;;;;;;;82.53;38.22;;;;;;;-0.62;100.00;98810.25;5016747;28;20032;-82
2022/12/05 02:12:44;;;;;;;83.32;36.88;;;;;;;-0.17;100.00;98814.53;5017429;28;20165;-81
2022/12/05 02:15:41;;;;;;;79.03;35.75;;;;;;;-0.29;100.00;98824.66;5022812;28;20482;-82
2022/12/05 02:18:16;;;;;;;90.28;38.70;;;;;;;-0.52;100.00;98826.53;5018784;28;20025;-82
2022/12/05 02:20:50;;;;;;;84.55;38.55;;;;;;;-0.49;100.00;98825.34;5021495;28;20037;-82
2022/12/05 02:23:37;;;;;;;83.25;35.70;;;;;;;-0.54;100.00;98825.06;5019768;28;20038;-82
2022/12/05 02:26:24;;;;;;;82.55;35.28;;;;;;;-0.49;100.00;98826.19;5015670;28;20018;-82
2022/12/05 02:29:04;;;;;;;87.07;39.70;;;;;;;-0.27;100.00;98814.81;5014521;28;20040;-82
2022/12/05 02:31:52;;;;;;;91.80;38.63;;;;;;;-0.32;100.00;98817.16;5039438;28;20032;-82
2022/12/05 02:34:27;;;;;;;86.68;38.33;;;;;;;-0.26;100.00;98820.84;5022223;28;20034;-82
2022/12/05 02:37:00;;;;;;;;;;;;;;;-0.37;100.00;98829.19;5024003;28;20039;-82
2022/12/05 02:39:40;;;;;;;74.13;33.47;;;;;;;-0.45;100.00;98795.97;5021881;28;20022;-82
2022/12/05 02:42:12;;;;;;;80.10;35.63;;;;;;;-0.46;100.00;98825.78;5022017;28;20029;-82
2022/12/05 02:44:47;;;;;;;84.38;35.47;;;;;;;-0.49;100.00;98813.06;5018462;28;20022;-82
2022/12/05 02:47:16;;;;;;;77.97;35.35;;;;;;;-0.85;100.00;98799.81;5024338;28;20041;-81
2022/12/05 02:49:42;;;;;;;92.22;39.33;;;;;;;-0.74;100.00;98819.50;5019573;28;20069;-83
2022/12/05 02:52:12;;;;;;;92.32;39.53;;;;;;;-0.67;100.00;98809.97;5021373;28;20033;-84
2022/12/05 02:54:41;;;;;;;82.75;36.13;;;;;;;-0.59;100.00;98791.53;5035786;28;20030;-83
2022/12/05 02:57:08;;;;;;;78.35;34.97;;;;;;;-0.70;100.00;98793.78;5020569;28;20029;-83
2022/12/05 02:59:34;;;;;;;82.75;36.97;;;;;;;-0.55;100.00;98800.69;5022652;28;20382;-84
2022/12/05 03:01:59;;;;;;;73.82;34.30;;;;;;;-0.81;100.00;98785.34;5021403;28;20039;-83
2022/12/05 03:04:28;;;;;;;69.82;31.55;;;;;;;-0.31;100.00;98791.75;5019774;28;21390;-83
2022/12/05 03:07:05;;;;;;;75.07;33.58;;;;;;;-0.38;99.96;98796.06;5021250;28;20041;-83
2022/12/05 03:09:46;;;;;;;75.15;34.30;;;;;;;-0.42;100.00;98790.38;5008458;28;20295;-84
2022/12/05 03:12:17;;;;;;;72.38;33.03;;;;;;;-0.45;100.00;98813.50;5020441;28;21677;-83
2022/12/05 03:14:59;;;;;;;88.05;35.67;;;;;;;-0.83;100.00;98802.25;5023411;28;20021;-84
2022/12/05 03:17:31;;;;;;;74.40;32.60;;;;;;;-0.85;100.00;98786.69;5021671;28;20029;-83
2022/12/05 03:20:13;;;;;;;73.85;33.40;;;;;;;-0.78;100.00;98808.59;5020641;28;20025;-83
2022/12/05 03:22:58;;;;;;;68.47;32.83;;;;;;;-0.92;100.00;98798.06;5023976;28;20494;-84
2022/12/05 03:25:28;;;;;;;69.47;32.65;;;;;;;-1.15;100.00;98781.56;5026425;28;20371;-84
2022/12/05 03:28:05;;;;;;;66.57;29.90;;;;;;;-1.12;100.00;98789.06;5024720;28;20120;-84
2022/12/05 03:30:34;;;;;;;65.22;30.05;;;;;;;-0.92;100.00;98803.31;5021545;28;20428;-84
2022/12/05 03:33:35;;;;;;;61.63;29.77;;;;;;;-1.07;100.00;98799.84;4992832;28;20140;-84
2022/12/05 03:36:08;;;;;;;67.18;31.20;;;;;;;-0.98;100.00;98785.66;5039600;28;20396;-84
2022/12/05 03:38:55;;;;;;;61.58;32.00;;;;;;;-1.00;100.00;98795.50;5022536;28;20025;-83
2022/12/05 03:41:46;;;;;;;67.35;32.03;;;;;;;-0.90;100.00;98799.53;5025739;28;20492;-83
2022/12/05 03:44:20;;;;;;;58.63;30.33;;;;;;;-1.00;100.00;98804.19;5023202;28;20026;-83
2022/12/05 03:46:54;;;;;;;64.82;29.52;;;;;;;-1.02;100.00;98797.50;5020897;28;20083;-83
2022/12/05 03:49:33;;;;;;;57.70;28.35;;;;;;;-0.76;100.00;98814.47;5020868;28;20033;-83
2022/12/05 03:52:08;;;;;;;67.03;31.33;;;;;;;-0.86;100.00;98813.09;5017572;28;20025;-83
2022/12/05 03:55:00;;;;;;;57.80;29.30;;;;;;;-0.93;100.00;98802.50;5016955;28;20045;-83
2022/12/05 03:57:34;;;;;;;63.35;28.65;;;;;;;-0.80;100.00;98792.22;5019571;28;20025;-83
2022/12/05 04:00:07;;;;;;;62.42;27.63;;;;;;;-0.98;100.00;98804.81;5014715;28;20025;-83
2022/12/05 04:02:46;;;;;;;60.15;28.23;;;;;;;-1.04;100.00;98784.59;5013885;28;20675;-83
2022/12/05 04:05:43;;;;;;;51.25;27.65;;;;;;;-0.59;100.00;98807.25;5015243;28;20037;-83
2022/12/05 04:08:17;;;;;;;55.97;26.05;;;;;;;-1.14;100.00;98812.00;5018903;28;20049;-83
2022/12/05 04:10:47;;;;;;;57.08;28.15;;;;;;;-1.13;100.00;98793.50;5018916;28;20032;-84
2022/12/05 04:13:21;;;;;;;60.80;30.33;;;;;;;-1.01;100.00;98799.13;5018923;28;20132;-83
2022/12/05 04:18:50;;;;;;;52.70;26.13;;;;;;;-0.86;100.00;98806.03;5021305;28;20069;-83
2022/12/05 04:26:52;;;;;;;56.88;29.27;;;;;;;-1.20;100.00;98797.00;5020224;28;19931;-83
2022/12/05 04:29:30;;;;;;;61.90;28.40;;;;;;;-1.00;100.00;98792.88;5019759;28;20040;-83
2022/12/05 04:32:03;;;;;;;55.70;27.77;;;;;;;-0.96;100.00;98815.94;5020332;28;20100;-83
2022/12/05 04:34:31;;;;;;;47.75;25.95;;;;;;;-1.02;100.00;98818.44;5017320;28;20442;-83
2022/12/05 04:37:04;;;;;;;57.97;28.38;;;;;;;-1.11;100.00;98817.69;5019485;28;20152;-83
2022/12/05 04:39:38;;;;;;;52.80;27.52;;;;;;;-1.11;100.00;98828.16;5020929;28;20101;-83
2022/12/05 04:42:07;;;;;;;54.50;27.20;;;;;;;-0.47;100.00;98839.09;5022582;28;20040;-83
2022/12/05 04:44:39;;;;;;;55.92;28.70;;;;;;;-1.00;100.00;98838.22;5018913;28;20029;-83
2022/12/05 04:47:08;;;;;;;50.90;27.63;;;;;;;-0.58;100.00;98829.03;5016338;28;20379;-83
2022/12/05 04:49:35;;;;;;;53.60;29.08;;;;;;;-0.85;100.00;98830.41;5018926;28;20041;-83
2022/12/05 04:52:08;;;;;;;45.67;26.08;;;;;;;-0.91;100.00;98818.03;5020786;28;20036;-83
2022/12/05 04:54:39;;;;;;;51.13;28.50;;;;;;;-1.08;100.00;98832.25;5016299;28;20029;-84
2022/12/05 04:57:14;;;;;;;53.20;27.20;;;;;;;-0.60;100.00;98831.84;5003239;28;20506;-83
2022/12/05 04:59:39;;;;;;;50.08;25.48;;;;;;;-1.02;100.00;98821.06;5018064;28;20049;-83
2022/12/05 05:02:11;;;;;;;42.10;22.52;;;;;;;-0.46;100.00;98838.91;5006618;28;20072;-83
2022/12/05 05:04:42;;;;;;;46.55;24.65;;;;;;;-0.49;100.00;98830.59;5020511;28;20056;-83
2022/12/05 05:07:09;;;;;;;49.65;27.02;;;;;;;-0.85;100.00;98835.66;5008078;28;20061;-83
2022/12/05 05:09:36;;;;;;;48.90;26.58;;;;;;;-0.58;100.00;98837.72;5022970;28;20454;-83
2022/12/05 05:12:01;;;;;;;47.58;27.25;;;;;;;-0.52;100.00;98830.94;5018220;28;20037;-83
2022/12/05 05:14:27;;;;;;;48.65;26.25;;;;;;;-0.79;100.00;98832.34;5017699;28;20368;-84
2022/12/05 05:16:52;;;;;;;45.80;27.20;;;;;;;-0.79;100.00;98825.28;5027756;28;20132;-84
2022/12/05 05:19:18;;;;;;;54.83;26.38;;;;;;;-0.92;100.00;98808.56;5007751;28;20037;-84
2022/12/05 05:21:43;;;;;;;47.17;27.00;;;;;;;-0.95;100.00;98822.00;5005488;28;20029;-85
2022/12/05 05:24:10;;;;;;;47.83;24.52;;;;;;;-0.80;100.00;98838.56;5021216;28;20076;-85
2022/12/05 05:26:40;;;;;;;45.88;24.48;;;;;;;-0.77;100.00;98825.13;5025683;28;20052;-84
2022/12/05 05:29:06;;;;;;;40.67;24.52;;;;;;;-0.87;100.00;98832.41;5028178;28;20038;-84
2022/12/05 05:31:31;;;;;;;41.63;23.60;;;;;;;-0.78;100.00;98829.53;5021938;28;20025;-84
2022/12/05 05:33:57;;;;;;;42.63;23.17;;;;;;;-0.82;100.00;98833.50;5025230;28;20033;-84
2022/12/05 05:36:26;;;;;;;47.85;26.25;;;;;;;-1.07;100.00;98836.50;5013591;28;20133;-85
2022/12/05 05:38:55;;;;;;;48.70;25.85;;;;;;;-0.80;100.00;98834.16;5024130;28;20064;-85
2022/12/05 05:41:34;;;;;;;45.65;24.80;;;;;;;-0.71;100.00;98806.06;5025842;28;20033;-85
2022/12/05 05:44:01;;;;;;;41.45;23.77;;;;;;;-0.15;99.84;98836.13;5009208;28;20037;-84
2022/12/05 05:46:29;;;;;;;43.45;24.88;;;;;;;0.51;97.96;98843.03;5027009;28;20115;-84
2022/12/05 05:48:54;;;;;;;39.30;23.98;;;;;;;-0.47;97.19;98845.16;5030824;28;20029;-85
2022/12/05 05:51:21;;;;;;;43.17;23.92;;;;;;;-0.14;97.00;98840.41;5005803;28;20037;-85
2022/12/05 05:53:47;;;;;;;38.70;22.58;;;;;;;-0.62;98.50;98840.88;5012630;28;20065;-85
2022/12/05 05:56:15;;;;;;;37.55;22.80;;;;;;;0.09;98.11;98821.94;5023909;28;20064;-85
2022/12/05 05:58:41;;;;;;;41.88;24.67;;;;;;;0.00;96.87;98836.97;5029525;28;20026;-85
2022/12/05 06:01:07;;;;;;;40.08;24.85;;;;;;;0.20;96.03;98842.47;5027178;28;20084;-85
2022/12/05 06:03:33;;;;;;;32.40;20.35;;;;;;;0.37;96.02;98833.41;5030019;28;20029;-85
2022/12/05 06:06:00;;;;;;;30.40;20.25;;;;;;;0.11;95.77;98846.19;5030437;28;20548;-85
2022/12/05 06:08:29;;;;;;;26.52;18.13;;;;;;;0.95;94.40;98841.09;5026562;28;20029;-85
2022/12/05 06:10:54;;;;;;;28.50;17.63;;;;;;;0.34;95.90;98849.50;5014924;28;20064;-85
2022/12/05 06:13:21;;;;;;;29.88;18.85;;;;;;;0.35;94.96;98840.66;5030940;28;20489;-85
2022/12/05 06:15:46;;;;;;;26.85;17.40;;;;;;;0.26;94.76;98811.06;5006058;28;20029;-84
2022/12/05 06:18:12;;;;;;;26.98;17.05;;;;;;;0.20;93.79;98831.97;4989900;28;20022;-86
2022/12/05 06:20:37;;;;;;;27.13;17.52;;;;;;;0.05;96.45;98813.59;4996541;28;20025;-86
2022/12/05 06:23:03;;;;;;;27.95;16.75;;;;;;;0.35;95.58;98827.53;5012799;28;20036;-85
2022/12/05 06:25:28;;;;;;;24.35;16.48;;;;;;;0.55;94.13;98837.25;5026498;28;20105;-86
2022/12/05 06:27:53;;;;;;;27.40;15.88;;;;;;;1.24;93.21;98851.50;4996381;28;20502;-86
2022/12/05 06:30:19;;;;;;;23.55;15.93;;;;;;;1.03;91.67;98821.75;5024825;28;20152;-86
2022/12/05 06:32:44;;;;;;;24.70;14.80;;;;;;;1.50;90.74;98838.56;5010157;28;20076;-86
2022/12/05 06:35:14;;;;;;;20.13;13.90;;;;;;;1.26;89.79;98815.31;5007870;28;20034;-86
2022/12/05 06:37:44;;;;;;;18.67;13.80;;;;;;;0.90;92.96;98840.03;4996832;28;20045;-86
2022/12/05 06:40:14;;;;;;;21.90;13.77;;;;;;;1.11;91.72;98851.38;5010842;28;20048;-86
2022/12/05 06:42:39;;;;;;;20.75;13.35;;;;;;;0.65;91.44;98858.78;5001579;28;20026;-86
2022/12/05 06:45:05;;;;;;;19.20;13.00;;;;;;;1.09;93.34;98853.34;4995444;28;20087;-86
2022/12/05 06:47:31;;;;;;;19.38;12.82;;;;;;;1.32;91.26;98866.31;4993547;28;20037;-86
2022/12/05 06:49:56;;;;;;;18.20;12.95;;;;;;;1.35;91.38;98860.69;5011666;28;20049;-87
2022/12/05 06:52:22;;;;;;;17.85;12.82;;;;;;;1.50;90.89;98858.78;5012141;28;20132;-86
2022/12/05 06:54:47;;;;;;;19.42;12.85;;;;;;;1.56;90.13;98846.66;5008913;28;20112;-86
2022/12/05 06:57:13;;;;;;;13.18;10.35;;;;;;;1.34;91.20;98869.56;5027938;28;20055;-86
2022/12/05 06:59:41;;;;;;;16.92;12.13;;;;;;;1.59;90.43;98876.06;5010214;28;20033;-86
2022/12/05 07:02:08;;;;;;;16.15;11.63;;;;;;;1.61;90.45;98868.78;4998939;28;20029;-86
2022/12/05 07:04:34;;;;;;;14.73;10.65;;;;;;;1.62;89.76;98844.09;5015312;28;20418;-86
2022/12/05 07:07:03;;;;;;;14.95;10.45;;;;;;;1.64;89.01;98843.91;5006880;28;20037;-87
2022/12/05 07:12:14;;;;;;;11.95;9.55;;;;;;;1.66;88.49;98849.81;5013092;28;20048;-87
2022/12/05 07:14:40;;;;;;;12.90;10.13;;;;;;;1.78;88.78;98864.03;5012898;28;20030;-87
2022/12/05 07:17:06;;;;;;;12.15;10.18;;;;;;;1.58;89.45;98855.19;5004255;28;20041;-87
2022/12/05 07:19:31;;;;;;;11.48;8.68;;;;;;;1.75;88.77;98872.34;5026478;28;20388;-87
2022/12/05 07:21:57;;;;;;;11.95;9.45;;;;;;;0.90;90.52;98880.25;5024733;28;20029;-87
2022/12/05 07:24:22;;;;;;;16.17;10.70;;;;;;;0.40;92.13;98883.72;4997655;28;20036;-86
2022/12/05 07:26:47;;;;;;;13.85;11.35;;;;;;;-0.06;94.44;98890.97;5024841;28;20029;-85
2022/12/05 07:29:13;;;;;;;17.55;12.07;;;;;;;-0.18;96.37;98897.66;4995944;28;20125;-85
2022/12/05 07:31:38;;;;;;;16.50;12.07;;;;;;;-0.49;96.43;98855.00;5025318;28;20485;-85
2022/12/05 07:34:03;;;;;;;16.38;11.98;;;;;;;-0.57;97.21;98880.47;5007061;28;20037;-86
2022/12/05 07:36:29;;;;;;;18.65;12.07;;;;;;;-1.22;98.80;98823.34;5024916;28;20402;-86
2022/12/05 07:38:56;;;;;;;19.20;12.32;;;;;;;-0.92;98.96;98872.22;5008900;28;20029;-85
2022/12/05 07:41:27;;;;;;;17.02;12.48;;;;;;;-0.79;99.43;98882.13;5009529;28;20033;-85
2022/12/05 07:43:54;;;;;;;14.45;11.55;;;;;;;-0.67;99.29;98895.59;5007315;28;20052;-85
2022/12/05 07:46:20;;;;;;;19.88;13.82;;;;;;;-0.81;99.53;98891.97;5028255;28;20456;-85
2022/12/05 07:48:46;;;;;;;19.63;13.63;;;;;;;-0.88;100.00;98888.41;5022341;28;20714;-85
2022/12/05 07:51:12;;;;;;;24.58;15.55;;;;;;;-0.98;99.96;98869.47;5026112;28;20033;-85
2022/12/05 07:53:38;;;;;;;19.65;13.85;;;;;;;-0.69;100.00;98893.19;5025912;28;20047;-85
2022/12/05 07:56:06;;;;;;;23.23;15.05;;;;;;;-0.47;99.86;98900.19;5021714;28;20022;-86
2022/12/05 07:58:33;;;;;;;22.35;15.02;;;;;;;-0.73;100.00;98907.63;5020423;28;20029;-86
2022/12/05 08:01:07;;;;;;;24.83;16.10;;;;;;;-1.23;100.00;98865.41;5027553;28;20406;-86
2022/12/05 08:03:32;;;;;;;22.58;15.82;;;;;;;-0.81;100.00;98911.09;5008467;28;20057;-86
2022/12/05 08:06:03;;;;;;;21.95;15.05;;;;;;;-1.18;100.00;98876.97;5013293;28;20087;-86
2022/12/05 08:08:28;;;;;;;24.27;15.60;;;;;;;-0.93;100.00;98919.53;4995695;28;20121;-86
2022/12/05 08:10:54;;;;;;;22.80;15.07;;;;;;;-0.73;100.00;98912.03;5013234;28;20116;-87
2022/12/05 08:13:19;;;;;;;22.42;15.23;;;;;;;-1.06;100.00;98908.81;5030244;28;20030;-87
2022/12/05 08:15:45;;;;;;;23.10;16.15;;;;;;;-1.20;100.00;98901.72;4995964;28;20045;-86
2022/12/05 08:18:10;;;;;;;23.80;15.35;;;;;;;-1.30;100.00;98882.78;5007425;28;20112;-86
2022/12/05 08:20:35;;;;;;;24.55;15.63;;;;;;;-0.97;100.00;98919.09;4989485;28;20032;-86
2022/12/05 08:23:01;;;;;;;25.92;16.95;;;;;;;-1.07;100.00;98888.88;4994915;28;20140;-86
2022/12/05 08:25:26;;;;;;;25.27;15.55;;;;;;;-0.92;100.00;98881.91;4996770;28;20029;-86
2022/12/05 08:27:52;;;;;;;19.08;13.88;;;;;;;-0.21;100.00;98892.75;5026741;28;20091;-86
2022/12/05 08:30:17;;;;;;;19.70;13.23;;;;;;;-0.40;99.63;98924.72;5013492;28;20108;-86
2022/12/05 08:32:43;;;;;;;26.95;15.95;;;;;;;-0.15;98.00;98920.88;5014019;28;20030;-87
2022/12/05 08:35:09;;;;;;;22.63;15.13;;;;;;;-0.23;98.21;98926.22;5011034;28;20040;-87
2022/12/05 08:37:34;;;;;;;23.25;13.88;;;;;;;-0.46;97.52;98912.31;4993945;28;20446;-86
2022/12/05 08:39:59;;;;;;;21.85;15.07;;;;;;;-0.14;97.86;98940.06;5022832;28;20040;-87
2022/12/05 08:42:25;;;;;;;18.55;12.65;;;;;;;-0.16;98.25;98918.44;5008531;28;20397;-87
2022/12/05 08:44:50;;;;;;;20.35;13.00;;;;;;;-0.12;97.01;98945.94;5024811;28;20034;-87
2022/12/05 08:47:16;;;;;;;18.40;11.98;;;;;;;-0.14;98.11;98935.63;5006844;28;20036;-87
2022/12/05 08:49:42;;;;;;;16.23;12.60;;;;;;;-0.31;97.45;98942.03;5007259;28;20394;-87
2022/12/05 08:52:07;;;;;;;21.45;13.95;;;;;;;-0.04;97.51;98936.19;5021912;28;20357;-87
2022/12/05 08:54:32;;;;;;;17.08;12.30;;;;;;;0.70;96.64;98944.88;5010104;28;20039;-87
2022/12/05 08:56:58;;;;;;;16.20;11.82;;;;;;;0.38;94.63;98932.13;5025891;28;20079;-87
2022/12/05 08:59:24;;;;;;;17.17;12.40;;;;;;;0.00;94.62;98913.84;5018044;28;20084;-86
2022/12/05 09:01:49;;;;;;;18.33;12.45;;;;;;;-0.21;95.90;98955.69;5019542;28;20033;-86
2022/12/05 09:04:15;;;;;;;18.90;12.95;;;;;;;-0.63;97.06;98899.53;5007456;28;20072;-87
2022/12/05 09:06:41;;;;;;;17.48;11.73;;;;;;;-0.07;97.60;98944.41;5009018;28;20516;-87
2022/12/05 09:09:10;;;;;;;17.75;12.70;;;;;;;-0.39;97.33;98963.03;5028613;28;20030;-87
2022/12/05 09:11:40;;;;;;;19.02;11.88;;;;;;;-0.28;98.50;98956.56;5025578;28;20033;-86
2022/12/05 09:14:05;;;;;;;13.82;10.75;;;;;;;0.00;97.91;98945.31;5024233;28;20018;-87
2022/12/05 09:16:33;;;;;;;16.48;11.73;;;;;;;0.07;96.94;98958.53;5004880;28;20096;-87
2022/12/05 09:18:59;;;;;;;13.48;9.95;;;;;;;0.41;97.07;98968.53;5012418;28;20573;-87
2022/12/05 09:21:27;;;;;;;13.85;11.13;;;;;;;0.27;96.01;98971.94;5011445;28;20120;-87
2022/12/05 09:23:53;;;;;;;14.15;11.13;;;;;;;0.88;95.45;98978.63;5010435;28;20025;-87
2022/12/05 09:26:22;;;;;;;16.55;11.68;;;;;;;0.61;93.52;98957.28;5029170;28;20048;-87
2022/12/05 09:28:48;;;;;;;19.50;13.27;;;;;;;-0.06;95.16;98964.41;5025292;28;20026;-87
2022/12/05 09:31:16;;;;;;;12.32;10.13;;;;;;;-0.18;96.43;98968.47;5013675;28;20026;-87
2022/12/05 09:33:42;;;;;;;14.60;10.07;;;;;;;-0.08;96.68;98961.16;5006024;28;20505;-87
2022/12/05 09:36:19;;;;;;;15.05;11.52;;;;;;;-0.24;96.65;98932.44;5017456;28;20436;-88
2022/12/05 09:38:45;;;;;;;11.23;8.70;;;;;;;-0.03;96.83;98950.94;5019944;28;20030;-87
2022/12/05 09:44:59;;;;;;;29.23;20.83;;;;;;;-0.13;97.44;98970.53;5020818;28;20036;-87
2022/12/05 09:47:40;;;;;;;28.90;18.75;;;;;;;-0.34;98.12;98960.72;5022062;28;20112;-87
2022/12/05 09:50:26;;;;;;;24.52;16.40;;;;;;;-0.32;98.18;98947.44;5025227;28;20041;-87
2022/12/05 09:53:10;;;;;;;13.23;9.80;;;;;;;0.28;98.59;98957.84;5025512;28;20052;-88
2022/12/05 09:55:48;;;;;;;26.95;18.33;;;;;;;0.39;95.57;98955.59;5023799;28;20036;-88
2022/12/05 09:58:25;;;;;;;23.55;15.70;;;;;;;0.01;96.66;98940.91;5022901;28;20033;-88
2022/12/05 10:00:58;;;;;;;12.23;9.82;;;;;;;-0.18;96.81;98905.53;5024157;28;20034;-88
2022/12/05 10:03:44;;;;;;;21.10;14.25;;;;;;;0.34;95.42;98925.63;5022875;28;20069;-88
2022/12/05 10:06:17;;;;;;;13.52;10.15;;;;;;;0.89;94.40;98954.81;5020002;28;20033;-87
2022/12/05 10:09:16;;;;;;;13.73;10.23;;;;;;;1.59;91.69;98952.34;5023054;28;20037;-88
2022/12/05 10:12:14;;;;;;;28.60;16.77;;;;;;;0.99;91.56;98949.25;5022165;28;20134;-88
2022/12/05 10:14:57;;;;;;;34.33;19.48;;;;;;;0.26;94.89;98944.91;5014131;28;20099;-88
2022/12/05 10:17:31;;;;;;;16.55;10.75;;;;;;;1.12;93.91;98923.94;5021272;28;20061;-88
2022/12/05 10:20:01;;;;;;;22.58;12.98;;;;;;;1.52;91.27;98938.28;5023024;28;20177;-87
2022/12/05 10:23:08;;;;;;;26.95;13.98;;;;;;;1.30;91.81;98945.38;5028135;28;20091;-87
2022/12/05 10:25:35;;;;;;;;;;;;;;;1.42;91.02;98941.22;5027624;28;20394;-87
2022/12/05 10:28:08;;;;;;;28.30;15.20;;;;;;;1.84;89.58;98921.97;5012337;28;20372;-87
2022/12/05 10:30:35;;;;;;;29.70;16.73;;;;;;;2.05;88.82;98942.97;5011058;28;20026;-87
2022/12/05 10:33:22;;;;;;;34.83;14.75;;;;;;;1.79;88.95;98936.72;5004690;28;20033;-88
2022/12/05 10:35:52;;;;;;;35.25;15.52;;;;;;;1.23;90.08;98925.25;5024766;28;20032;-88
2022/12/05 10:38:30;;;;;;;52.22;20.27;;;;;;;1.16;90.91;98948.84;4991600;28;20116;-88
2022/12/05 10:40:59;;;;;;;42.85;19.13;;;;;;;1.26;90.54;98899.44;5024352;28;20025;-88
2022/12/05 10:43:27;;;;;;;47.15;20.60;;;;;;;1.38;89.25;98915.50;5016573;28;20447;-88
2022/12/05 10:45:53;;;;;;;44.92;19.95;;;;;;;0.85;91.79;98903.66;5025331;28;20504;-88
2022/12/05 10:48:21;;;;;;;42.00;18.85;;;;;;;1.12;91.71;98939.72;5012991;28;20033;-88
2022/12/05 10:50:50;;;;;;;36.88;17.92;;;;;;;1.00;90.67;98880.78;5028498;28;20029;-87
2022/12/05 10:53:19;;;;;;;46.35;18.73;;;;;;;1.21;91.83;98933.34;5030082;28;20666;-87
2022/12/05 10:55:47;;;;;;;35.47;18.33;;;;;;;1.03;91.17;98934.75;5027476;28;20060;-87
2022/12/05 10:58:27;;;;;;;37.80;18.42;;;;;;;0.44;92.69;98899.91;5025396;28;20067;-88
2022/12/05 11:01:12;;;;;;;37.92;18.55;;;;;;;1.35;92.59;98914.09;5028051;28;20048;-87
2022/12/05 11:03:39;;;;;;;29.60;15.57;;;;;;;0.99;91.65;98926.44;5032254;28;20017;-87
2022/12/05 11:06:25;;;;;;;38.05;18.73;;;;;;;1.66;90.28;98918.19;5014686;28;20025;-87
2022/12/05 11:08:53;;;;;;;38.22;17.35;;;;;;;1.38;91.09;98931.28;5025289;28;20032;-86
2022/12/05 11:11:27;;;;;;;34.88;17.40;;;;;;;1.63;89.78;98929.09;5006222;28;20044;-86
2022/12/05 11:14:01;;;;;;;38.20;17.92;;;;;;;1.78;90.11;98935.06;5026217;28;20374;-84
2022/12/05 11:16:36;;;;;;;26.63;13.88;;;;;;;1.72;88.69;98913.00;5026705;28;20041;-85
2022/12/05 11:19:20;;;;;;;32.17;16.83;;;;;;;2.00;88.82;98939.31;5026216;28;20396;-86
2022/12/05 11:21:46;;;;;;;28.73;15.38;;;;;;;1.91;88.53;98914.94;5031398;28;20042;-86
2022/12/05 11:24:26;;;;;;;32.08;14.85;;;;;;;1.55;88.92;98937.13;5025695;28;20697;-85
2022/12/05 11:26:52;;;;;;;27.20;13.15;;;;;;;1.41;89.82;98928.28;5020734;28;20497;-85
2022/12/05 11:29:36;;;;;;;19.30;12.95;;;;;;;0.48;92.09;98917.72;5029442;28;20041;-85
2022/12/05 11:32:04;;;;;;;19.52;13.23;;;;;;;0.46;93.95;98932.84;5026481;28;20057;-84
2022/12/05 11:34:47;;;;;;;41.97;21.52;;;;;;;1.06;93.47;98927.31;5029803;28;20033;-85
2022/12/05 11:37:21;;;;;;;32.38;22.83;;;;;;;0.77;92.73;98933.47;5025283;28;20032;-84
2022/12/05 11:39:46;;;;;;;24.55;15.05;;;;;;;1.12;92.70;98928.38;5029462;28;20029;-85
2022/12/05 11:42:47;;;;;;;25.40;15.20;;;;;;;1.72;90.36;98946.38;5009569;28;20026;-85
2022/12/05 11:45:19;;;;;;;29.58;17.88;;;;;;;1.38;90.40;98918.94;5026993;28;20120;-84